createdAt,value
2018-03-27T00:00:43.707Z,93.40
2018-03-27T00:05:18.080Z,93.40
2018-03-27T00:09:51.396Z,93.70
2018-03-27T00:14:24.638Z,93.50
2018-03-27T00:18:58.007Z,93.50
2018-03-27T00:23:31.498Z,93.40
2018-03-27T00:28:17.710Z,93.20
2018-03-27T00:33:03.829Z,93.10
2018-03-27T00:37:49.111Z,93.10
2018-03-27T00:42:43.014Z,92.90
2018-03-27T00:47:16.293Z,92.90
2018-03-27T00:51:49.677Z,93.10
2018-03-27T00:56:22.949Z,93.10
2018-03-27T01:00:56.280Z,93.00
2018-03-27T01:05:29.682Z,93.00
2018-03-27T01:10:02.909Z,93.60
2018-03-27T01:14:36.363Z,93.50
2018-03-27T01:19:10.413Z,93.50
2018-03-27T01:23:43.735Z,93.40
2018-03-27T01:28:17.046Z,93.80
2018-03-27T01:32:50.426Z,93.30
2018-03-27T01:37:24.431Z,94.40
2018-03-27T01:41:58.306Z,94.40
2018-03-27T01:46:31.610Z,94.70
2018-03-27T01:51:05.129Z,94.80
2018-03-27T01:55:38.406Z,94.70
2018-03-27T02:00:12.648Z,94.20
2018-03-27T02:04:46.081Z,94.10
2018-03-27T02:09:19.561Z,94.30
2018-03-27T02:13:59.164Z,95.50
2018-03-27T02:18:38.596Z,95.20
2018-03-27T02:28:16.627Z,95.00
2018-03-27T02:32:50.762Z,95.50
2018-03-27T02:37:24.029Z,95.50
2018-03-27T02:41:57.440Z,95.50
2018-03-27T02:46:30.816Z,95.00
2018-03-27T02:51:04.197Z,95.20
2018-03-27T02:55:38.355Z,95.40
2018-03-27T03:00:12.335Z,95.30
2018-03-27T03:04:46.567Z,94.70
2018-03-27T03:09:20.021Z,94.60
2018-03-27T03:13:53.400Z,95.00
2018-03-27T03:18:27.573Z,94.90
2018-03-27T03:23:00.941Z,94.90
2018-03-27T03:27:35.673Z,94.50
2018-03-27T03:32:08.957Z,94.50
2018-03-27T03:36:42.322Z,94.80
2018-03-27T03:41:15.585Z,94.80
2018-03-27T03:45:48.869Z,95.10
2018-03-27T03:50:22.640Z,95.70
2018-03-27T03:54:56.868Z,95.50
2018-03-27T03:59:31.613Z,95.00
2018-03-27T04:04:05.743Z,95.00
2018-03-27T04:08:39.762Z,95.40
2018-03-27T04:13:14.118Z,95.10
2018-03-27T04:17:47.390Z,95.10
2018-03-27T04:22:20.748Z,95.40
2018-03-27T04:26:54.749Z,95.40
2018-03-27T04:31:28.780Z,95.70
2018-03-27T04:36:03.002Z,95.90
2018-03-27T04:40:37.163Z,96.00
2018-03-27T04:45:10.458Z,96.00
2018-03-27T04:49:43.955Z,96.20
2018-03-27T04:54:18.696Z,96.00
2018-03-27T04:58:52.823Z,96.00
2018-03-27T05:03:27.552Z,96.00
2018-03-27T05:08:00.975Z,96.00
2018-03-27T05:12:35.031Z,96.20
2018-03-27T05:17:08.413Z,96.20
2018-03-27T05:21:42.543Z,96.00
2018-03-27T05:26:16.533Z,96.10
2018-03-27T05:30:49.979Z,96.10
2018-03-27T05:35:24.019Z,96.60
2018-03-27T05:39:57.302Z,96.60
2018-03-27T05:44:30.543Z,96.30
2018-03-27T05:49:04.430Z,96.70
2018-03-27T05:53:37.781Z,97.10
2018-03-27T05:58:11.167Z,97.40
2018-03-27T06:02:45.217Z,97.00
2018-03-27T06:07:18.522Z,97.00
2018-03-27T06:11:52.437Z,97.10
2018-03-27T06:16:25.836Z,97.40
2018-03-27T06:20:59.986Z,97.60
2018-03-27T06:25:33.303Z,97.60
2018-03-27T06:30:06.601Z,97.90
2018-03-27T06:34:39.840Z,97.60
2018-03-27T06:39:13.106Z,97.60
2018-03-27T06:43:46.509Z,97.60
2018-03-27T06:48:20.501Z,97.30
2018-03-27T06:52:53.983Z,97.30
2018-03-27T06:57:27.868Z,97.20
2018-03-27T07:02:02.062Z,97.20
2018-03-27T07:06:35.531Z,97.10
2018-03-27T07:11:09.608Z,97.20
2018-03-27T07:15:42.952Z,97.00
2018-03-27T07:20:17.109Z,97.40
2018-03-27T07:24:50.598Z,97.40
2018-03-27T07:29:24.610Z,97.30
2018-03-27T07:33:58.936Z,97.50
2018-03-27T07:38:32.770Z,97.50
2018-03-27T07:43:06.821Z,97.70
2018-03-27T07:47:40.210Z,97.60
2018-03-27T07:52:14.317Z,97.00
2018-03-27T07:56:47.879Z,97.00
2018-03-27T08:01:21.264Z,97.30
2018-03-27T08:05:55.416Z,97.60
2018-03-27T08:10:28.804Z,97.60
2018-03-27T08:15:03.335Z,97.40
2018-03-27T08:19:37.546Z,97.40
2018-03-27T08:24:10.944Z,97.60
2018-03-27T08:28:44.536Z,97.60
2018-03-27T08:33:17.805Z,97.60
2018-03-27T08:37:51.834Z,96.70
2018-03-27T08:42:26.676Z,96.40
2018-03-27T08:47:00.806Z,96.10
2018-03-27T08:51:35.083Z,95.70
2018-03-27T08:56:08.389Z,95.70
2018-03-27T09:00:41.862Z,95.20
2018-03-27T09:05:15.721Z,94.00
2018-03-27T09:09:49.010Z,94.10
2018-03-27T09:14:22.295Z,94.10
2018-03-27T09:18:56.346Z,92.80
2018-03-27T09:23:29.839Z,92.80
2018-03-27T09:28:04.083Z,92.00
2018-03-27T09:32:38.152Z,92.00
2018-03-27T09:37:11.860Z,91.80
2018-03-27T09:41:45.230Z,87.70
2018-03-27T09:46:18.529Z,78.10
2018-03-27T09:50:52.588Z,64.40
2018-03-27T09:55:25.883Z,64.30
2018-03-27T09:59:59.383Z,67.20
2018-03-27T10:04:32.898Z,69.00
2018-03-27T10:09:07.161Z,63.60
2018-03-27T10:13:40.593Z,63.50
2018-03-27T10:18:14.191Z,61.10
2018-03-27T10:22:49.593Z,61.30
2018-03-27T10:27:23.710Z,59.30
2018-03-27T10:31:56.984Z,57.50
2018-03-27T10:36:30.886Z,57.40
2018-03-27T10:41:04.402Z,62.10
2018-03-27T10:45:37.832Z,65.80
2018-03-27T10:50:11.340Z,68.60
2018-03-27T10:54:44.789Z,72.90
2018-03-27T10:59:18.244Z,74.40
2018-03-27T11:03:52.517Z,75.80
2018-03-27T11:08:25.880Z,75.80
2018-03-27T11:12:59.914Z,73.20
2018-03-27T11:17:33.329Z,73.20
2018-03-27T11:22:06.733Z,72.80
2018-03-27T11:26:41.877Z,72.00
2018-03-27T11:31:15.931Z,72.50
2018-03-27T11:35:49.199Z,72.30
2018-03-27T11:40:23.198Z,71.50
2018-03-27T11:44:56.583Z,70.90
2018-03-27T11:49:29.819Z,72.00
2018-03-27T11:54:03.101Z,71.00
2018-03-27T11:58:36.652Z,72.50
2018-03-27T12:03:09.886Z,74.60
2018-03-27T12:07:43.913Z,77.70
2018-03-27T12:12:17.930Z,78.10
2018-03-27T12:16:51.966Z,74.90
2018-03-27T12:21:26.676Z,73.70
2018-03-27T12:25:59.944Z,73.60
2018-03-27T12:30:33.175Z,74.60
2018-03-27T12:35:06.751Z,80.00
2018-03-27T12:39:40.024Z,83.70
2018-03-27T12:44:14.080Z,78.00
2018-03-27T12:48:48.082Z,78.80
2018-03-27T12:53:21.412Z,78.80
2018-03-27T12:57:54.738Z,81.20
2018-03-27T13:02:28.045Z,83.20
2018-03-27T13:07:01.312Z,83.10
2018-03-27T13:11:34.820Z,81.70
2018-03-27T13:16:08.230Z,79.40
2018-03-27T13:20:42.936Z,78.90
2018-03-27T13:25:16.312Z,79.00
2018-03-27T13:29:50.489Z,83.90
2018-03-27T13:34:23.789Z,83.80
2018-03-27T13:38:57.065Z,86.30
2018-03-27T13:43:30.473Z,88.40
2018-03-27T13:48:04.544Z,87.80
2018-03-27T13:52:37.929Z,87.70
2018-03-27T13:57:11.210Z,90.40
2018-03-27T14:01:45.388Z,92.70
2018-03-27T14:06:19.378Z,92.70
2018-03-27T14:10:53.429Z,91.90
2018-03-27T14:15:26.697Z,91.80
2018-03-27T14:19:59.988Z,91.60
2018-03-27T14:24:33.555Z,90.40
2018-03-27T14:29:07.420Z,90.00
2018-03-27T14:33:41.478Z,90.90
2018-03-27T14:38:15.555Z,91.00
2018-03-27T14:42:48.900Z,90.90
2018-03-27T14:47:22.952Z,89.50
2018-03-27T14:51:56.972Z,91.10
2018-03-27T14:56:30.988Z,90.80
2018-03-27T15:01:05.396Z,92.10
2018-03-27T15:05:38.680Z,92.10
2018-03-27T15:10:11.966Z,92.60
2018-03-27T15:14:45.228Z,92.50
2018-03-27T15:19:18.483Z,91.60
2018-03-27T15:23:51.750Z,92.40
2018-03-27T15:28:25.000Z,91.30
2018-03-27T15:32:58.279Z,91.70
2018-03-27T15:37:32.338Z,92.60
2018-03-27T15:42:05.624Z,92.60
2018-03-27T15:46:39.752Z,93.30
2018-03-27T15:51:13.798Z,94.40
2018-03-27T15:55:47.696Z,94.40
2018-03-27T16:00:21.733Z,95.60
2018-03-27T16:04:55.755Z,94.90
2018-03-27T16:09:29.806Z,96.20
2018-03-27T16:14:03.057Z,96.50
2018-03-27T16:18:36.329Z,95.80
2018-03-27T16:23:09.571Z,96.10
2018-03-27T16:27:42.881Z,96.70
2018-03-27T16:32:16.235Z,97.50
2018-03-27T16:36:49.983Z,97.80
2018-03-27T16:41:24.173Z,98.80
2018-03-27T16:45:58.318Z,98.90
2018-03-27T16:50:31.710Z,98.90
2018-03-27T16:55:06.407Z,99.20
2018-03-27T16:59:39.661Z,99.10
2018-03-27T17:04:13.685Z,99.40
2018-03-27T17:08:47.718Z,99.80
2018-03-27T17:13:21.765Z,99.60
2018-03-27T17:17:54.987Z,99.60
2018-03-27T17:22:28.256Z,99.60
2018-03-27T17:27:02.275Z,99.90
2018-03-27T17:31:36.507Z,99.90
2018-03-27T17:36:09.828Z,99.90
2018-03-27T17:40:43.865Z,99.90
2018-03-27T17:45:17.171Z,99.90
2018-03-27T17:49:50.435Z,99.90
2018-03-27T17:54:23.997Z,99.90
2018-03-27T17:58:57.206Z,99.90
2018-03-27T18:03:30.474Z,99.90
2018-03-27T18:08:03.745Z,99.90
2018-03-27T18:12:36.991Z,99.90
2018-03-27T18:17:10.422Z,99.90
2018-03-27T18:21:43.754Z,99.90
2018-03-27T18:26:17.019Z,99.90
2018-03-27T18:30:50.245Z,99.90
2018-03-27T18:35:24.782Z,99.90
2018-03-27T18:39:58.812Z,99.90
2018-03-27T18:44:32.793Z,99.90
2018-03-27T18:49:06.063Z,99.90
2018-03-27T18:53:39.322Z,99.90
2018-03-27T18:58:12.657Z,99.90
2018-03-27T19:02:46.687Z,99.90
2018-03-27T19:07:20.723Z,99.90
2018-03-27T19:11:53.952Z,99.90
2018-03-27T19:16:27.308Z,99.90
2018-03-27T19:21:01.314Z,99.90
2018-03-27T19:25:35.400Z,99.90
2018-03-27T19:30:08.938Z,99.90
2018-03-27T19:34:42.248Z,99.90
2018-03-27T19:39:15.494Z,99.90
2018-03-27T19:43:49.535Z,99.90
2018-03-27T19:48:23.905Z,99.90
2018-03-27T19:52:57.234Z,99.90
2018-03-27T19:57:30.522Z,99.90
2018-03-27T20:02:03.869Z,99.90
2018-03-27T20:06:37.731Z,99.90
2018-03-27T20:11:11.047Z,99.90
2018-03-27T20:15:44.320Z,99.90
2018-03-27T20:20:17.822Z,99.90
2018-03-27T20:24:51.108Z,99.90
2018-03-27T20:29:24.403Z,99.90
2018-03-27T20:33:57.781Z,99.90
2018-03-27T20:38:31.056Z,99.90
2018-03-27T20:43:05.124Z,99.90
2018-03-27T20:47:39.367Z,99.90
2018-03-27T20:52:12.780Z,99.90
2018-03-27T20:56:48.088Z,99.90
2018-03-27T21:01:22.696Z,99.90
2018-03-27T21:05:56.087Z,99.90
2018-03-27T21:10:29.368Z,99.90
2018-03-27T21:15:03.409Z,99.90
2018-03-27T21:19:37.256Z,99.90
2018-03-27T21:24:10.639Z,99.90
2018-03-27T21:28:43.946Z,99.90
2018-03-27T21:33:17.973Z,99.90
2018-03-27T21:37:52.869Z,99.90
2018-03-27T21:42:27.070Z,99.90
2018-03-27T21:47:00.913Z,99.90
2018-03-27T21:51:34.275Z,99.90
2018-03-27T21:56:08.382Z,99.90
2018-03-27T22:00:41.853Z,99.90
2018-03-27T22:05:15.127Z,99.90
2018-03-27T22:09:49.449Z,99.90
2018-03-27T22:14:23.472Z,99.90
2018-03-27T22:18:57.312Z,99.90
2018-03-27T22:23:31.335Z,99.90
2018-03-27T22:28:06.012Z,99.90
2018-03-27T22:32:39.293Z,99.90
2018-03-27T22:37:13.202Z,99.90
2018-03-27T22:41:47.207Z,99.90
2018-03-27T22:46:20.459Z,99.90
2018-03-27T22:50:53.738Z,99.90
2018-03-27T22:55:27.874Z,99.90
2018-03-27T23:00:01.911Z,99.90
2018-03-27T23:04:35.136Z,99.90
2018-03-27T23:09:08.427Z,99.90
2018-03-27T23:13:41.746Z,99.90
2018-03-27T23:18:15.007Z,99.90
2018-03-27T23:22:48.852Z,99.90
2018-03-27T23:27:23.118Z,99.90
2018-03-27T23:31:56.364Z,99.90
2018-03-27T23:36:29.643Z,99.90
2018-03-27T23:41:02.961Z,99.90
2018-03-27T23:45:36.647Z,99.90
2018-03-27T23:50:10.097Z,99.90
2018-03-27T23:54:43.638Z,99.90
2018-03-27T23:59:17.273Z,99.90
